sensor_id;sensor_type;location;lat;lon;timestamp;P1;durP1;ratioP1;P2;durP2;ratioP2
66946;SDS011;53853;51.982;5.928;2023-05-20T00:01:37;7.63;;;3.50;;
66946;SDS011;53853;51.982;5.928;2023-05-20T00:04:07;6.97;;;3.33;;
66946;SDS011;53853;51.982;5.928;2023-05-20T00:06:37;8.75;;;3.78;;
66946;SDS011;53853;51.982;5.928;2023-05-20T00:09:07;10.00;;;3.30;;
66946;SDS011;53853;51.982;5.928;2023-05-20T00:11:37;9.32;;;3.22;;
66946;SDS011;53853;51.982;5.928;2023-05-20T00:14:09;8.65;;;3.42;;
66946;SDS011;53853;51.982;5.928;2023-05-20T00:16:39;7.70;;;3.00;;
66946;SDS011;53853;51.982;5.928;2023-05-20T00:19:09;8.98;;;4.30;;
66946;SDS011;53853;51.982;5.928;2023-05-20T00:21:38;7.55;;;3.47;;
66946;SDS011;53853;51.982;5.928;2023-05-20T00:24:08;11.10;;;3.65;;
66946;SDS011;53853;51.982;5.928;2023-05-20T00:26:38;7.57;;;3.70;;
66946;SDS011;53853;51.982;5.928;2023-05-20T00:29:10;8.35;;;3.63;;
66946;SDS011;53853;51.982;5.928;2023-05-20T00:31:40;6.45;;;3.70;;
66946;SDS011;53853;51.982;5.928;2023-05-20T00:34:10;11.05;;;3.97;;
66946;SDS011;53853;51.982;5.928;2023-05-20T00:36:40;7.25;;;3.05;;
66946;SDS011;53853;51.982;5.928;2023-05-20T00:39:10;6.45;;;3.00;;
66946;SDS011;53853;51.982;5.928;2023-05-20T00:41:40;7.07;;;3.38;;
66946;SDS011;53853;51.982;5.928;2023-05-20T00:44:13;8.52;;;3.05;;
66946;SDS011;53853;51.982;5.928;2023-05-20T00:46:43;11.55;;;3.65;;
66946;SDS011;53853;51.982;5.928;2023-05-20T00:49:14;9.88;;;4.00;;
66946;SDS011;53853;51.982;5.928;2023-05-20T00:51:44;7.53;;;3.88;;
66946;SDS011;53853;51.982;5.928;2023-05-20T00:54:14;5.55;;;3.45;;
66946;SDS011;53853;51.982;5.928;2023-05-20T00:56:44;6.00;;;3.13;;
66946;SDS011;53853;51.982;5.928;2023-05-20T00:59:17;10.27;;;4.55;;
66946;SDS011;53853;51.982;5.928;2023-05-20T01:01:47;7.18;;;3.85;;
66946;SDS011;53853;51.982;5.928;2023-05-20T01:04:18;7.82;;;3.88;;
66946;SDS011;53853;51.982;5.928;2023-05-20T01:06:48;6.63;;;4.13;;
66946;SDS011;53853;51.982;5.928;2023-05-20T01:09:18;7.80;;;4.57;;
66946;SDS011;53853;51.982;5.928;2023-05-20T01:11:49;7.18;;;3.80;;
66946;SDS011;53853;51.982;5.928;2023-05-20T01:14:27;7.50;;;3.42;;
66946;SDS011;53853;51.982;5.928;2023-05-20T01:17:02;8.27;;;4.07;;
66946;SDS011;53853;51.982;5.928;2023-05-20T01:19:37;8.07;;;4.07;;
66946;SDS011;53853;51.982;5.928;2023-05-20T01:22:10;9.07;;;3.78;;
66946;SDS011;53853;51.982;5.928;2023-05-20T01:24:45;6.55;;;2.85;;
66946;SDS011;53853;51.982;5.928;2023-05-20T01:27:18;6.78;;;3.40;;
66946;SDS011;53853;51.982;5.928;2023-05-20T01:29:50;8.48;;;4.10;;
66946;SDS011;53853;51.982;5.928;2023-05-20T01:32:21;8.23;;;3.60;;
66946;SDS011;53853;51.982;5.928;2023-05-20T01:34:53;4.85;;;3.92;;
66946;SDS011;53853;51.982;5.928;2023-05-20T01:37:25;7.68;;;3.95;;
66946;SDS011;53853;51.982;5.928;2023-05-20T01:40:00;9.40;;;3.92;;
66946;SDS011;53853;51.982;5.928;2023-05-20T01:42:31;6.80;;;3.22;;
66946;SDS011;53853;51.982;5.928;2023-05-20T01:45:03;5.93;;;3.08;;
66946;SDS011;53853;51.982;5.928;2023-05-20T01:47:34;4.57;;;3.03;;
66946;SDS011;53853;51.982;5.928;2023-05-20T01:50:05;10.63;;;4.15;;
66946;SDS011;53853;51.982;5.928;2023-05-20T01:52:35;7.95;;;4.20;;
66946;SDS011;53853;51.982;5.928;2023-05-20T01:55:08;8.25;;;4.47;;
66946;SDS011;53853;51.982;5.928;2023-05-20T01:57:38;6.72;;;3.80;;
66946;SDS011;53853;51.982;5.928;2023-05-20T02:00:09;8.25;;;4.10;;
66946;SDS011;53853;51.982;5.928;2023-05-20T02:02:39;6.80;;;3.40;;
66946;SDS011;53853;51.982;5.928;2023-05-20T02:05:11;8.45;;;4.78;;
66946;SDS011;53853;51.982;5.928;2023-05-20T02:07:42;8.88;;;4.47;;
66946;SDS011;53853;51.982;5.928;2023-05-20T02:10:15;6.05;;;3.45;;
66946;SDS011;53853;51.982;5.928;2023-05-20T02:12:45;6.70;;;3.30;;
66946;SDS011;53853;51.982;5.928;2023-05-20T02:15:15;4.50;;;3.05;;
66946;SDS011;53853;51.982;5.928;2023-05-20T02:17:45;8.10;;;4.40;;
66946;SDS011;53853;51.982;5.928;2023-05-20T02:20:15;10.18;;;4.70;;
66946;SDS011;53853;51.982;5.928;2023-05-20T02:22:45;8.82;;;4.00;;
66946;SDS011;53853;51.982;5.928;2023-05-20T02:25:17;6.35;;;3.13;;
66946;SDS011;53853;51.982;5.928;2023-05-20T02:27:47;7.10;;;3.40;;
66946;SDS011;53853;51.982;5.928;2023-05-20T02:30:17;9.32;;;3.35;;
66946;SDS011;53853;51.982;5.928;2023-05-20T02:32:47;10.02;;;3.50;;
66946;SDS011;53853;51.982;5.928;2023-05-20T02:35:17;7.90;;;3.75;;
66946;SDS011;53853;51.982;5.928;2023-05-20T02:37:47;9.23;;;4.28;;
66946;SDS011;53853;51.982;5.928;2023-05-20T02:40:19;8.20;;;4.38;;
66946;SDS011;53853;51.982;5.928;2023-05-20T02:42:49;5.97;;;3.33;;
66946;SDS011;53853;51.982;5.928;2023-05-20T02:45:19;4.72;;;3.60;;
66946;SDS011;53853;51.982;5.928;2023-05-20T02:47:49;9.35;;;3.67;;
66946;SDS011;53853;51.982;5.928;2023-05-20T02:50:19;7.32;;;3.63;;
66946;SDS011;53853;51.982;5.928;2023-05-20T02:52:48;6.40;;;2.72;;
66946;SDS011;53853;51.982;5.928;2023-05-20T02:55:21;7.40;;;3.70;;
66946;SDS011;53853;51.982;5.928;2023-05-20T02:57:51;4.93;;;2.92;;
66946;SDS011;53853;51.982;5.928;2023-05-20T03:00:22;5.45;;;3.10;;
66946;SDS011;53853;51.982;5.928;2023-05-20T03:02:53;5.60;;;3.03;;
66946;SDS011;53853;51.982;5.928;2023-05-20T03:05:23;5.18;;;3.15;;
66946;SDS011;53853;51.982;5.928;2023-05-20T03:07:53;7.97;;;3.60;;
66946;SDS011;53853;51.982;5.928;2023-05-20T03:10:25;7.63;;;3.75;;
66946;SDS011;53853;51.982;5.928;2023-05-20T03:12:55;5.10;;;3.65;;
66946;SDS011;53853;51.982;5.928;2023-05-20T03:15:25;8.73;;;4.32;;
66946;SDS011;53853;51.982;5.928;2023-05-20T03:17:55;6.22;;;2.95;;
66946;SDS011;53853;51.982;5.928;2023-05-20T03:20:25;7.43;;;3.38;;
66946;SDS011;53853;51.982;5.928;2023-05-20T03:22:55;6.32;;;3.35;;
66946;SDS011;53853;51.982;5.928;2023-05-20T03:25:28;4.97;;;3.33;;
66946;SDS011;53853;51.982;5.928;2023-05-20T03:27:58;6.60;;;3.33;;
66946;SDS011;53853;51.982;5.928;2023-05-20T03:30:28;10.15;;;4.18;;
66946;SDS011;53853;51.982;5.928;2023-05-20T03:32:58;6.07;;;3.13;;
66946;SDS011;53853;51.982;5.928;2023-05-20T03:35:28;4.88;;;3.50;;
66946;SDS011;53853;51.982;5.928;2023-05-20T03:37:58;8.68;;;3.50;;
66946;SDS011;53853;51.982;5.928;2023-05-20T03:40:32;7.45;;;3.40;;
66946;SDS011;53853;51.982;5.928;2023-05-20T03:43:03;6.97;;;3.15;;
66946;SDS011;53853;51.982;5.928;2023-05-20T03:45:32;6.78;;;2.90;;
66946;SDS011;53853;51.982;5.928;2023-05-20T03:48:05;5.53;;;3.13;;
66946;SDS011;53853;51.982;5.928;2023-05-20T03:50:35;7.82;;;3.90;;
66946;SDS011;53853;51.982;5.928;2023-05-20T03:53:05;5.68;;;3.45;;
66946;SDS011;53853;51.982;5.928;2023-05-20T03:55:43;5.65;;;2.83;;
66946;SDS011;53853;51.982;5.928;2023-05-20T03:58:13;3.92;;;2.80;;
66946;SDS011;53853;51.982;5.928;2023-05-20T04:00:43;4.78;;;2.95;;
66946;SDS011;53853;51.982;5.928;2023-05-20T04:03:12;4.55;;;3.28;;
66946;SDS011;53853;51.982;5.928;2023-05-20T04:05:44;5.35;;;3.75;;
66946;SDS011;53853;51.982;5.928;2023-05-20T04:08:17;6.57;;;4.20;;
66946;SDS011;53853;51.982;5.928;2023-05-20T04:10:53;6.88;;;4.18;;
66946;SDS011;53853;51.982;5.928;2023-05-20T04:13:24;8.70;;;3.65;;
66946;SDS011;53853;51.982;5.928;2023-05-20T04:15:53;7.13;;;3.83;;
66946;SDS011;53853;51.982;5.928;2023-05-20T04:18:24;5.88;;;3.38;;
66946;SDS011;53853;51.982;5.928;2023-05-20T04:20:54;5.15;;;3.40;;
66946;SDS011;53853;51.982;5.928;2023-05-20T04:23:26;8.23;;;2.97;;
66946;SDS011;53853;51.982;5.928;2023-05-20T04:25:59;7.15;;;3.70;;
66946;SDS011;53853;51.982;5.928;2023-05-20T04:28:30;5.80;;;3.60;;
66946;SDS011;53853;51.982;5.928;2023-05-20T04:31:02;7.47;;;3.88;;
66946;SDS011;53853;51.982;5.928;2023-05-20T04:33:35;4.78;;;3.10;;
66946;SDS011;53853;51.982;5.928;2023-05-20T04:36:08;4.68;;;3.03;;
66946;SDS011;53853;51.982;5.928;2023-05-20T04:38:40;8.23;;;3.67;;
66946;SDS011;53853;51.982;5.928;2023-05-20T04:41:13;6.07;;;3.70;;
66946;SDS011;53853;51.982;5.928;2023-05-20T04:43:43;4.85;;;3.10;;
66946;SDS011;53853;51.982;5.928;2023-05-20T04:46:15;8.57;;;3.28;;
66946;SDS011;53853;51.982;5.928;2023-05-20T04:48:45;8.63;;;3.53;;
66946;SDS011;53853;51.982;5.928;2023-05-20T04:51:15;6.32;;;3.70;;
66946;SDS011;53853;51.982;5.928;2023-05-20T04:53:45;5.70;;;3.50;;
66946;SDS011;53853;51.982;5.928;2023-05-20T04:56:18;5.88;;;4.00;;
66946;SDS011;53853;51.982;5.928;2023-05-20T04:58:47;5.15;;;3.08;;
66946;SDS011;53853;51.982;5.928;2023-05-20T05:01:18;4.35;;;2.88;;
66946;SDS011;53853;51.982;5.928;2023-05-20T05:03:48;5.13;;;3.33;;
66946;SDS011;53853;51.982;5.928;2023-05-20T05:06:18;3.53;;;2.50;;
66946;SDS011;53853;51.982;5.928;2023-05-20T05:08:48;6.05;;;2.67;;
66946;SDS011;53853;51.982;5.928;2023-05-20T05:11:20;6.13;;;3.10;;
66946;SDS011;53853;51.982;5.928;2023-05-20T05:13:51;9.18;;;3.63;;
66946;SDS011;53853;51.982;5.928;2023-05-20T05:16:24;9.20;;;3.75;;
66946;SDS011;53853;51.982;5.928;2023-05-20T05:18:54;4.50;;;3.05;;
66946;SDS011;53853;51.982;5.928;2023-05-20T05:21:27;5.32;;;2.97;;
66946;SDS011;53853;51.982;5.928;2023-05-20T05:23:57;4.95;;;2.78;;
66946;SDS011;53853;51.982;5.928;2023-05-20T05:26:29;7.57;;;3.58;;
66946;SDS011;53853;51.982;5.928;2023-05-20T05:28:59;6.82;;;2.55;;
66946;SDS011;53853;51.982;5.928;2023-05-20T05:31:29;3.55;;;2.70;;
66946;SDS011;53853;51.982;5.928;2023-05-20T05:33:59;3.85;;;2.95;;
66946;SDS011;53853;51.982;5.928;2023-05-20T05:36:30;5.22;;;3.17;;
66946;SDS011;53853;51.982;5.928;2023-05-20T05:39:01;4.93;;;3.30;;
66946;SDS011;53853;51.982;5.928;2023-05-20T05:41:34;4.40;;;2.75;;
66946;SDS011;53853;51.982;5.928;2023-05-20T05:44:04;6.30;;;3.70;;
66946;SDS011;53853;51.982;5.928;2023-05-20T05:46:34;6.18;;;2.90;;
66946;SDS011;53853;51.982;5.928;2023-05-20T05:49:04;5.70;;;2.80;;
66946;SDS011;53853;51.982;5.928;2023-05-20T05:51:34;6.72;;;3.00;;
66946;SDS011;53853;51.982;5.928;2023-05-20T05:54:04;7.50;;;4.07;;
66946;SDS011;53853;51.982;5.928;2023-05-20T05:56:37;4.60;;;2.60;;
66946;SDS011;53853;51.982;5.928;2023-05-20T05:59:07;5.63;;;3.20;;
66946;SDS011;53853;51.982;5.928;2023-05-20T06:01:37;4.97;;;2.55;;
66946;SDS011;53853;51.982;5.928;2023-05-20T06:04:07;6.75;;;3.20;;
66946;SDS011;53853;51.982;5.928;2023-05-20T06:06:38;4.28;;;2.55;;
66946;SDS011;53853;51.982;5.928;2023-05-20T06:09:08;4.10;;;2.55;;
66946;SDS011;53853;51.982;5.928;2023-05-20T06:11:40;2.75;;;1.60;;
66946;SDS011;53853;51.982;5.928;2023-05-20T06:14:10;6.55;;;2.47;;
66946;SDS011;53853;51.982;5.928;2023-05-20T06:16:40;6.05;;;2.92;;
66946;SDS011;53853;51.982;5.928;2023-05-20T06:19:11;4.07;;;2.70;;
66946;SDS011;53853;51.982;5.928;2023-05-20T06:21:41;6.57;;;3.25;;
66946;SDS011;53853;51.982;5.928;2023-05-20T06:24:10;4.88;;;2.78;;
66946;SDS011;53853;51.982;5.928;2023-05-20T06:26:43;4.13;;;2.72;;
66946;SDS011;53853;51.982;5.928;2023-05-20T06:29:15;4.70;;;2.45;;
66946;SDS011;53853;51.982;5.928;2023-05-20T06:31:45;5.03;;;2.58;;
66946;SDS011;53853;51.982;5.928;2023-05-20T06:34:14;4.75;;;2.70;;
66946;SDS011;53853;51.982;5.928;2023-05-20T06:36:45;4.38;;;2.40;;
66946;SDS011;53853;51.982;5.928;2023-05-20T06:39:14;5.68;;;3.47;;
66946;SDS011;53853;51.982;5.928;2023-05-20T06:41:48;4.47;;;2.20;;
66946;SDS011;53853;51.982;5.928;2023-05-20T06:44:26;5.28;;;2.90;;
66946;SDS011;53853;51.982;5.928;2023-05-20T06:47:17;3.33;;;2.58;;
66946;SDS011;53853;51.982;5.928;2023-05-20T06:49:48;5.07;;;2.58;;
66946;SDS011;53853;51.982;5.928;2023-05-20T06:52:18;8.45;;;3.28;;
66946;SDS011;53853;51.982;5.928;2023-05-20T06:54:48;5.38;;;2.75;;
66946;SDS011;53853;51.982;5.928;2023-05-20T06:57:21;5.80;;;2.83;;
66946;SDS011;53853;51.982;5.928;2023-05-20T06:59:51;6.93;;;2.72;;
66946;SDS011;53853;51.982;5.928;2023-05-20T07:02:21;4.55;;;2.50;;
66946;SDS011;53853;51.982;5.928;2023-05-20T07:04:52;4.68;;;2.40;;
66946;SDS011;53853;51.982;5.928;2023-05-20T07:07:22;5.72;;;2.53;;
66946;SDS011;53853;51.982;5.928;2023-05-20T07:09:53;3.75;;;2.08;;
66946;SDS011;53853;51.982;5.928;2023-05-20T07:12:25;6.53;;;3.95;;
66946;SDS011;53853;51.982;5.928;2023-05-20T07:14:55;5.00;;;3.15;;
66946;SDS011;53853;51.982;5.928;2023-05-20T07:17:26;4.85;;;2.95;;
66946;SDS011;53853;51.982;5.928;2023-05-20T07:19:56;5.93;;;2.63;;
66946;SDS011;53853;51.982;5.928;2023-05-20T07:22:26;5.00;;;2.83;;
66946;SDS011;53853;51.982;5.928;2023-05-20T07:25:07;4.03;;;2.47;;
66946;SDS011;53853;51.982;5.928;2023-05-20T07:27:40;3.70;;;2.60;;
66946;SDS011;53853;51.982;5.928;2023-05-20T07:30:11;3.30;;;2.10;;
66946;SDS011;53853;51.982;5.928;2023-05-20T07:32:46;4.82;;;2.90;;
66946;SDS011;53853;51.982;5.928;2023-05-20T07:35:16;4.57;;;2.40;;
66946;SDS011;53853;51.982;5.928;2023-05-20T07:37:45;4.47;;;3.33;;
66946;SDS011;53853;51.982;5.928;2023-05-20T07:40:15;7.38;;;2.97;;
66946;SDS011;53853;51.982;5.928;2023-05-20T07:42:48;5.07;;;3.40;;
66946;SDS011;53853;51.982;5.928;2023-05-20T07:45:19;5.43;;;3.00;;
66946;SDS011;53853;51.982;5.928;2023-05-20T07:47:49;6.70;;;2.95;;
66946;SDS011;53853;51.982;5.928;2023-05-20T07:50:19;6.78;;;2.72;;
66946;SDS011;53853;51.982;5.928;2023-05-20T07:52:49;6.53;;;2.70;;
66946;SDS011;53853;51.982;5.928;2023-05-20T07:55:19;13.00;;;3.28;;
66946;SDS011;53853;51.982;5.928;2023-05-20T07:57:51;4.57;;;2.42;;
66946;SDS011;53853;51.982;5.928;2023-05-20T08:00:22;5.25;;;2.50;;
66946;SDS011;53853;51.982;5.928;2023-05-20T08:02:52;6.28;;;3.13;;
66946;SDS011;53853;51.982;5.928;2023-05-20T08:05:30;7.15;;;3.08;;
66946;SDS011;53853;51.982;5.928;2023-05-20T08:07:59;3.95;;;2.20;;
66946;SDS011;53853;51.982;5.928;2023-05-20T08:10:39;5.60;;;2.50;;
66946;SDS011;53853;51.982;5.928;2023-05-20T08:13:11;5.78;;;2.67;;
66946;SDS011;53853;51.982;5.928;2023-05-20T08:15:41;6.15;;;2.92;;
66946;SDS011;53853;51.982;5.928;2023-05-20T08:18:13;4.05;;;2.75;;
66946;SDS011;53853;51.982;5.928;2023-05-20T08:20:43;3.92;;;2.55;;
66946;SDS011;53853;51.982;5.928;2023-05-20T08:23:13;4.15;;;2.72;;
66946;SDS011;53853;51.982;5.928;2023-05-20T08:25:43;5.68;;;4.03;;
66946;SDS011;53853;51.982;5.928;2023-05-20T08:28:17;5.43;;;3.35;;
66946;SDS011;53853;51.982;5.928;2023-05-20T08:30:47;7.72;;;2.85;;
66946;SDS011;53853;51.982;5.928;2023-05-20T08:33:17;5.07;;;3.00;;
66946;SDS011;53853;51.982;5.928;2023-05-20T08:35:47;4.72;;;2.65;;
66946;SDS011;53853;51.982;5.928;2023-05-20T08:38:17;3.67;;;2.00;;
66946;SDS011;53853;51.982;5.928;2023-05-20T08:40:50;5.07;;;2.42;;
66946;SDS011;53853;51.982;5.928;2023-05-20T08:43:23;6.60;;;2.97;;
66946;SDS011;53853;51.982;5.928;2023-05-20T08:45:54;5.90;;;2.70;;
66946;SDS011;53853;51.982;5.928;2023-05-20T08:48:28;3.70;;;2.25;;
66946;SDS011;53853;51.982;5.928;2023-05-20T08:50:59;6.30;;;3.10;;
66946;SDS011;53853;51.982;5.928;2023-05-20T08:53:31;4.18;;;2.78;;
66946;SDS011;53853;51.982;5.928;2023-05-20T08:56:01;3.75;;;1.90;;
66946;SDS011;53853;51.982;5.928;2023-05-20T08:58:34;6.05;;;2.92;;
66946;SDS011;53853;51.982;5.928;2023-05-20T09:01:04;3.75;;;2.33;;
66946;SDS011;53853;51.982;5.928;2023-05-20T09:03:35;3.40;;;2.10;;
66946;SDS011;53853;51.982;5.928;2023-05-20T09:06:05;5.22;;;2.35;;
66946;SDS011;53853;51.982;5.928;2023-05-20T09:08:37;3.25;;;2.13;;
66946;SDS011;53853;51.982;5.928;2023-05-20T09:11:08;4.78;;;2.55;;
66946;SDS011;53853;51.982;5.928;2023-05-20T09:13:40;3.85;;;2.08;;
66946;SDS011;53853;51.982;5.928;2023-05-20T09:16:10;7.00;;;2.42;;
66946;SDS011;53853;51.982;5.928;2023-05-20T09:18:40;4.45;;;2.40;;
66946;SDS011;53853;51.982;5.928;2023-05-20T09:21:10;7.03;;;2.45;;
66946;SDS011;53853;51.982;5.928;2023-05-20T09:23:40;5.97;;;2.00;;
66946;SDS011;53853;51.982;5.928;2023-05-20T09:26:18;4.22;;;1.92;;
66946;SDS011;53853;51.982;5.928;2023-05-20T09:28:52;4.00;;;1.98;;
66946;SDS011;53853;51.982;5.928;2023-05-20T09:31:24;5.18;;;2.60;;
66946;SDS011;53853;51.982;5.928;2023-05-20T09:33:55;4.15;;;2.40;;
66946;SDS011;53853;51.982;5.928;2023-05-20T09:36:25;6.45;;;1.90;;
66946;SDS011;53853;51.982;5.928;2023-05-20T09:38:57;4.35;;;1.75;;
66946;SDS011;53853;51.982;5.928;2023-05-20T09:41:32;3.42;;;2.08;;
66946;SDS011;53853;51.982;5.928;2023-05-20T09:44:08;5.13;;;2.03;;
66946;SDS011;53853;51.982;5.928;2023-05-20T09:46:38;6.63;;;2.20;;
66946;SDS011;53853;51.982;5.928;2023-05-20T09:49:09;4.05;;;2.40;;
66946;SDS011;53853;51.982;5.928;2023-05-20T09:51:41;6.97;;;2.35;;
66946;SDS011;53853;51.982;5.928;2023-05-20T09:54:13;6.15;;;2.75;;
66946;SDS011;53853;51.982;5.928;2023-05-20T09:56:45;3.33;;;2.28;;
66946;SDS011;53853;51.982;5.928;2023-05-20T09:59:18;10.52;;;2.50;;
66946;SDS011;53853;51.982;5.928;2023-05-20T10:01:51;3.38;;;1.95;;
66946;SDS011;53853;51.982;5.928;2023-05-20T10:04:20;4.38;;;2.47;;
66946;SDS011;53853;51.982;5.928;2023-05-20T10:06:59;5.57;;;2.70;;
66946;SDS011;53853;51.982;5.928;2023-05-20T10:09:44;4.25;;;1.92;;
66946;SDS011;53853;51.982;5.928;2023-05-20T10:12:28;5.78;;;2.33;;
66946;SDS011;53853;51.982;5.928;2023-05-20T10:15:09;7.05;;;2.28;;
66946;SDS011;53853;51.982;5.928;2023-05-20T10:17:49;3.08;;;1.98;;
66946;SDS011;53853;51.982;5.928;2023-05-20T10:20:31;5.13;;;1.70;;
66946;SDS011;53853;51.982;5.928;2023-05-20T10:23:19;3.47;;;2.10;;
66946;SDS011;53853;51.982;5.928;2023-05-20T10:25:50;5.60;;;2.20;;
66946;SDS011;53853;51.982;5.928;2023-05-20T10:28:26;6.82;;;2.30;;
66946;SDS011;53853;51.982;5.928;2023-05-20T10:31:00;4.80;;;2.40;;
66946;SDS011;53853;51.982;5.928;2023-05-20T10:33:39;4.18;;;1.95;;
66946;SDS011;53853;51.982;5.928;2023-05-20T10:36:10;4.63;;;2.03;;
66946;SDS011;53853;51.982;5.928;2023-05-20T10:38:53;3.45;;;1.42;;
66946;SDS011;53853;51.982;5.928;2023-05-20T10:41:24;5.10;;;1.90;;
66946;SDS011;53853;51.982;5.928;2023-05-20T10:44:01;4.28;;;1.80;;
66946;SDS011;53853;51.982;5.928;2023-05-20T10:46:34;2.70;;;1.67;;
66946;SDS011;53853;51.982;5.928;2023-05-20T10:49:04;4.03;;;1.90;;
66946;SDS011;53853;51.982;5.928;2023-05-20T10:51:44;4.40;;;1.95;;
66946;SDS011;53853;51.982;5.928;2023-05-20T10:54:15;3.40;;;2.30;;
66946;SDS011;53853;51.982;5.928;2023-05-20T10:56:49;4.78;;;2.60;;
66946;SDS011;53853;51.982;5.928;2023-05-20T10:59:20;4.07;;;2.13;;
66946;SDS011;53853;51.982;5.928;2023-05-20T11:01:52;3.20;;;1.90;;
66946;SDS011;53853;51.982;5.928;2023-05-20T11:04:23;4.15;;;2.00;;
66946;SDS011;53853;51.982;5.928;2023-05-20T11:06:54;4.97;;;2.10;;
66946;SDS011;53853;51.982;5.928;2023-05-20T11:09:24;6.03;;;2.42;;
66946;SDS011;53853;51.982;5.928;2023-05-20T11:11:55;5.25;;;2.40;;
66946;SDS011;53853;51.982;5.928;2023-05-20T11:14:26;3.03;;;1.80;;
66946;SDS011;53853;51.982;5.928;2023-05-20T11:16:59;5.10;;;2.08;;
66946;SDS011;53853;51.982;5.928;2023-05-20T11:19:29;4.35;;;1.98;;
66946;SDS011;53853;51.982;5.928;2023-05-20T11:21:59;5.88;;;2.67;;
66946;SDS011;53853;51.982;5.928;2023-05-20T11:24:29;4.15;;;2.35;;
66946;SDS011;53853;51.982;5.928;2023-05-20T11:26:59;3.45;;;1.88;;
66946;SDS011;53853;51.982;5.928;2023-05-20T11:29:30;3.33;;;1.92;;
66946;SDS011;53853;51.982;5.928;2023-05-20T11:32:02;3.42;;;1.65;;
66946;SDS011;53853;51.982;5.928;2023-05-20T11:34:33;4.30;;;1.80;;
66946;SDS011;53853;51.982;5.928;2023-05-20T11:37:05;5.38;;;1.70;;
66946;SDS011;53853;51.982;5.928;2023-05-20T11:39:36;3.90;;;1.60;;
66946;SDS011;53853;51.982;5.928;2023-05-20T11:42:06;6.18;;;2.42;;
66946;SDS011;53853;51.982;5.928;2023-05-20T11:44:36;6.13;;;1.83;;
66946;SDS011;53853;51.982;5.928;2023-05-20T11:47:13;3.25;;;1.50;;
66946;SDS011;53853;51.982;5.928;2023-05-20T11:49:46;3.00;;;1.77;;
66946;SDS011;53853;51.982;5.928;2023-05-20T11:54:49;3.78;;;1.50;;
66946;SDS011;53853;51.982;5.928;2023-05-20T11:57:20;3.65;;;1.52;;
66946;SDS011;53853;51.982;5.928;2023-05-20T11:59:50;4.30;;;1.55;;
66946;SDS011;53853;51.982;5.928;2023-05-20T12:02:23;4.25;;;1.92;;
66946;SDS011;53853;51.982;5.928;2023-05-20T12:04:52;3.95;;;1.80;;
66946;SDS011;53853;51.982;5.928;2023-05-20T12:07:22;2.47;;;1.63;;
66946;SDS011;53853;51.982;5.928;2023-05-20T12:09:53;3.42;;;1.45;;
66946;SDS011;53853;51.982;5.928;2023-05-20T12:12:22;3.17;;;1.77;;
66946;SDS011;53853;51.982;5.928;2023-05-20T12:14:52;4.30;;;1.88;;
66946;SDS011;53853;51.982;5.928;2023-05-20T12:17:25;3.67;;;1.80;;
66946;SDS011;53853;51.982;5.928;2023-05-20T12:19:54;3.22;;;1.70;;
66946;SDS011;53853;51.982;5.928;2023-05-20T12:22:24;6.50;;;2.17;;
66946;SDS011;53853;51.982;5.928;2023-05-20T12:24:54;3.95;;;1.75;;
66946;SDS011;53853;51.982;5.928;2023-05-20T12:27:24;2.60;;;1.48;;
66946;SDS011;53853;51.982;5.928;2023-05-20T12:29:55;4.60;;;1.58;;
66946;SDS011;53853;51.982;5.928;2023-05-20T12:32:27;5.15;;;1.27;;
66946;SDS011;53853;51.982;5.928;2023-05-20T12:34:57;4.90;;;1.88;;
66946;SDS011;53853;51.982;5.928;2023-05-20T12:37:27;4.70;;;1.75;;
66946;SDS011;53853;51.982;5.928;2023-05-20T12:39:57;4.43;;;2.38;;
66946;SDS011;53853;51.982;5.928;2023-05-20T12:42:28;2.92;;;1.52;;
66946;SDS011;53853;51.982;5.928;2023-05-20T12:44:58;3.13;;;1.67;;
66946;SDS011;53853;51.982;5.928;2023-05-20T12:47:31;6.07;;;4.65;;
66946;SDS011;53853;51.982;5.928;2023-05-20T12:50:02;4.03;;;1.90;;
66946;SDS011;53853;51.982;5.928;2023-05-20T12:52:32;3.05;;;1.75;;
66946;SDS011;53853;51.982;5.928;2023-05-20T12:55:02;4.47;;;1.60;;
66946;SDS011;53853;51.982;5.928;2023-05-20T12:57:38;2.80;;;1.60;;
66946;SDS011;53853;51.982;5.928;2023-05-20T13:00:08;4.72;;;2.72;;
66946;SDS011;53853;51.982;5.928;2023-05-20T13:02:42;3.20;;;2.00;;
66946;SDS011;53853;51.982;5.928;2023-05-20T13:05:12;2.70;;;1.60;;
66946;SDS011;53853;51.982;5.928;2023-05-20T13:07:42;4.43;;;1.60;;
66946;SDS011;53853;51.982;5.928;2023-05-20T13:10:13;3.58;;;1.80;;
66946;SDS011;53853;51.982;5.928;2023-05-20T13:12:44;5.40;;;2.20;;
66946;SDS011;53853;51.982;5.928;2023-05-20T13:15:14;5.80;;;1.80;;
66946;SDS011;53853;51.982;5.928;2023-05-20T13:17:47;4.03;;;1.73;;
66946;SDS011;53853;51.982;5.928;2023-05-20T13:20:17;5.35;;;1.65;;
66946;SDS011;53853;51.982;5.928;2023-05-20T13:22:46;3.22;;;1.70;;
66946;SDS011;53853;51.982;5.928;2023-05-20T13:25:17;3.70;;;2.03;;
66946;SDS011;53853;51.982;5.928;2023-05-20T13:27:46;3.20;;;1.83;;
66946;SDS011;53853;51.982;5.928;2023-05-20T13:30:16;3.33;;;2.10;;
66946;SDS011;53853;51.982;5.928;2023-05-20T13:32:50;3.95;;;1.67;;
66946;SDS011;53853;51.982;5.928;2023-05-20T13:35:20;2.85;;;1.70;;
66946;SDS011;53853;51.982;5.928;2023-05-20T13:37:50;3.33;;;1.80;;
66946;SDS011;53853;51.982;5.928;2023-05-20T13:40:20;3.35;;;1.80;;
66946;SDS011;53853;51.982;5.928;2023-05-20T13:42:50;3.35;;;1.75;;
66946;SDS011;53853;51.982;5.928;2023-05-20T13:45:19;2.33;;;1.42;;
66946;SDS011;53853;51.982;5.928;2023-05-20T13:47:52;4.43;;;1.77;;
66946;SDS011;53853;51.982;5.928;2023-05-20T13:50:22;3.10;;;1.65;;
66946;SDS011;53853;51.982;5.928;2023-05-20T13:52:53;2.83;;;1.70;;
66946;SDS011;53853;51.982;5.928;2023-05-20T13:55:22;3.53;;;1.75;;
66946;SDS011;53853;51.982;5.928;2023-05-20T13:57:53;5.43;;;2.22;;
66946;SDS011;53853;51.982;5.928;2023-05-20T14:00:22;4.18;;;1.33;;
66946;SDS011;53853;51.982;5.928;2023-05-20T14:02:55;5.18;;;1.92;;
66946;SDS011;53853;51.982;5.928;2023-05-20T14:05:25;2.33;;;1.33;;
66946;SDS011;53853;51.982;5.928;2023-05-20T14:07:55;4.03;;;1.90;;
66946;SDS011;53853;51.982;5.928;2023-05-20T14:10:25;3.10;;;1.88;;
66946;SDS011;53853;51.982;5.928;2023-05-20T14:12:56;4.32;;;1.90;;
66946;SDS011;53853;51.982;5.928;2023-05-20T14:15:26;2.75;;;1.45;;
66946;SDS011;53853;51.982;5.928;2023-05-20T14:17:59;3.25;;;1.63;;
66946;SDS011;53853;51.982;5.928;2023-05-20T14:20:29;4.63;;;1.73;;
66946;SDS011;53853;51.982;5.928;2023-05-20T14:22:59;3.40;;;1.55;;
66946;SDS011;53853;51.982;5.928;2023-05-20T14:25:29;4.00;;;1.85;;
66946;SDS011;53853;51.982;5.928;2023-05-20T14:27:58;4.47;;;1.73;;
66946;SDS011;53853;51.982;5.928;2023-05-20T14:30:28;7.18;;;3.45;;
66946;SDS011;53853;51.982;5.928;2023-05-20T14:33:01;3.38;;;1.80;;
66946;SDS011;53853;51.982;5.928;2023-05-20T14:35:30;2.67;;;1.48;;
66946;SDS011;53853;51.982;5.928;2023-05-20T14:38:00;4.95;;;1.48;;
66946;SDS011;53853;51.982;5.928;2023-05-20T14:40:31;3.78;;;1.88;;
66946;SDS011;53853;51.982;5.928;2023-05-20T14:43:01;3.63;;;1.42;;
66946;SDS011;53853;51.982;5.928;2023-05-20T14:45:31;3.92;;;1.58;;
66946;SDS011;53853;51.982;5.928;2023-05-20T14:48:03;3.45;;;1.35;;
66946;SDS011;53853;51.982;5.928;2023-05-20T14:50:34;2.70;;;1.20;;
66946;SDS011;53853;51.982;5.928;2023-05-20T14:53:04;3.63;;;1.50;;
66946;SDS011;53853;51.982;5.928;2023-05-20T14:55:34;3.45;;;1.90;;
66946;SDS011;53853;51.982;5.928;2023-05-20T14:58:03;3.53;;;1.40;;
66946;SDS011;53853;51.982;5.928;2023-05-20T15:00:33;2.78;;;1.77;;
66946;SDS011;53853;51.982;5.928;2023-05-20T15:03:06;5.65;;;2.08;;
66946;SDS011;53853;51.982;5.928;2023-05-20T15:05:36;5.03;;;1.88;;
66946;SDS011;53853;51.982;5.928;2023-05-20T15:08:05;4.00;;;1.70;;
66946;SDS011;53853;51.982;5.928;2023-05-20T15:10:35;3.08;;;1.63;;
66946;SDS011;53853;51.982;5.928;2023-05-20T15:13:05;4.47;;;1.75;;
66946;SDS011;53853;51.982;5.928;2023-05-20T15:15:35;4.68;;;1.65;;